sensor_id;sensor_type;location;lat;lon;timestamp;P1;durP1;ratioP1;P2;durP2;ratioP2
16354;SDS011;8287;51.644;8.494;2023-06-22T00:01:12;8.45;;;7.50;;
16354;SDS011;8287;51.644;8.494;2023-06-22T00:03:38;8.52;;;7.63;;
16354;SDS011;8287;51.644;8.494;2023-06-22T00:06:05;9.43;;;8.52;;
16354;SDS011;8287;51.644;8.494;2023-06-22T00:08:32;9.50;;;7.90;;
16354;SDS011;8287;51.644;8.494;2023-06-22T00:10:58;10.85;;;8.07;;
16354;SDS011;8287;51.644;8.494;2023-06-22T00:13:25;9.38;;;8.25;;
16354;SDS011;8287;51.644;8.494;2023-06-22T00:15:52;8.68;;;7.78;;
16354;SDS011;8287;51.644;8.494;2023-06-22T00:18:19;8.95;;;8.15;;
16354;SDS011;8287;51.644;8.494;2023-06-22T00:20:46;8.80;;;7.90;;
16354;SDS011;8287;51.644;8.494;2023-06-22T00:23:12;9.10;;;7.90;;
16354;SDS011;8287;51.644;8.494;2023-06-22T00:25:40;9.43;;;8.27;;
16354;SDS011;8287;51.644;8.494;2023-06-22T00:28:07;9.98;;;8.02;;
16354;SDS011;8287;51.644;8.494;2023-06-22T00:30:34;9.23;;;8.43;;
16354;SDS011;8287;51.644;8.494;2023-06-22T00:33:02;8.07;;;7.30;;
16354;SDS011;8287;51.644;8.494;2023-06-22T00:35:32;9.55;;;8.73;;
16354;SDS011;8287;51.644;8.494;2023-06-22T00:38:00;8.60;;;7.60;;
16354;SDS011;8287;51.644;8.494;2023-06-22T00:40:28;9.43;;;7.25;;
16354;SDS011;8287;51.644;8.494;2023-06-22T00:42:56;8.55;;;7.80;;
16354;SDS011;8287;51.644;8.494;2023-06-22T00:45:23;8.70;;;7.82;;
16354;SDS011;8287;51.644;8.494;2023-06-22T00:47:50;9.27;;;8.25;;
16354;SDS011;8287;51.644;8.494;2023-06-22T00:50:19;9.65;;;7.65;;
16354;SDS011;8287;51.644;8.494;2023-06-22T00:52:48;9.10;;;7.78;;
16354;SDS011;8287;51.644;8.494;2023-06-22T00:55:17;13.98;;;8.80;;
16354;SDS011;8287;51.644;8.494;2023-06-22T00:57:45;10.60;;;6.90;;
16354;SDS011;8287;51.644;8.494;2023-06-22T01:00:13;9.35;;;7.05;;
16354;SDS011;8287;51.644;8.494;2023-06-22T01:02:41;8.77;;;7.68;;
16354;SDS011;8287;51.644;8.494;2023-06-22T01:05:10;8.77;;;7.88;;
16354;SDS011;8287;51.644;8.494;2023-06-22T01:07:41;9.48;;;8.45;;
16354;SDS011;8287;51.644;8.494;2023-06-22T01:10:14;11.55;;;7.90;;
16354;SDS011;8287;51.644;8.494;2023-06-22T01:12:45;9.38;;;7.97;;
16354;SDS011;8287;51.644;8.494;2023-06-22T01:15:18;9.43;;;8.10;;
16354;SDS011;8287;51.644;8.494;2023-06-22T01:17:49;8.57;;;7.78;;
16354;SDS011;8287;51.644;8.494;2023-06-22T01:20:18;9.18;;;8.18;;
16354;SDS011;8287;51.644;8.494;2023-06-22T01:22:51;9.40;;;8.13;;
16354;SDS011;8287;51.644;8.494;2023-06-22T01:25:30;10.00;;;7.68;;
16354;SDS011;8287;51.644;8.494;2023-06-22T01:28:05;11.82;;;8.05;;
16354;SDS011;8287;51.644;8.494;2023-06-22T01:30:46;10.90;;;8.90;;
16354;SDS011;8287;51.644;8.494;2023-06-22T01:33:30;10.07;;;9.07;;
16354;SDS011;8287;51.644;8.494;2023-06-22T01:36:00;12.80;;;9.32;;
16354;SDS011;8287;51.644;8.494;2023-06-22T01:38:28;12.40;;;10.10;;
16354;SDS011;8287;51.644;8.494;2023-06-22T01:40:56;11.65;;;10.25;;
16354;SDS011;8287;51.644;8.494;2023-06-22T01:43:23;16.77;;;9.80;;
16354;SDS011;8287;51.644;8.494;2023-06-22T01:45:52;12.82;;;10.77;;
16354;SDS011;8287;51.644;8.494;2023-06-22T01:48:20;13.77;;;11.13;;
16354;SDS011;8287;51.644;8.494;2023-06-22T01:50:48;12.27;;;9.63;;
16354;SDS011;8287;51.644;8.494;2023-06-22T01:53:15;9.77;;;8.85;;
16354;SDS011;8287;51.644;8.494;2023-06-22T01:55:41;11.73;;;9.50;;
16354;SDS011;8287;51.644;8.494;2023-06-22T01:58:08;10.07;;;9.15;;
16354;SDS011;8287;51.644;8.494;2023-06-22T02:00:36;11.95;;;9.95;;
16354;SDS011;8287;51.644;8.494;2023-06-22T02:03:08;10.90;;;9.82;;
16354;SDS011;8287;51.644;8.494;2023-06-22T02:05:43;14.50;;;9.88;;
16354;SDS011;8287;51.644;8.494;2023-06-22T02:08:17;18.83;;;9.30;;
16354;SDS011;8287;51.644;8.494;2023-06-22T02:10:47;10.68;;;8.85;;
16354;SDS011;8287;51.644;8.494;2023-06-22T02:13:15;9.75;;;8.55;;
16354;SDS011;8287;51.644;8.494;2023-06-22T02:15:42;13.50;;;8.82;;
16354;SDS011;8287;51.644;8.494;2023-06-22T02:18:10;16.08;;;9.63;;
16354;SDS011;8287;51.644;8.494;2023-06-22T02:20:38;10.68;;;8.65;;
16354;SDS011;8287;51.644;8.494;2023-06-22T02:23:05;8.60;;;7.70;;
16354;SDS011;8287;51.644;8.494;2023-06-22T02:25:32;25.55;;;9.45;;
16354;SDS011;8287;51.644;8.494;2023-06-22T02:27:59;9.40;;;7.80;;
16354;SDS011;8287;51.644;8.494;2023-06-22T02:30:26;15.40;;;9.68;;
16354;SDS011;8287;51.644;8.494;2023-06-22T02:32:52;11.63;;;8.75;;
16354;SDS011;8287;51.644;8.494;2023-06-22T02:35:25;11.88;;;9.40;;
16354;SDS011;8287;51.644;8.494;2023-06-22T02:37:51;12.23;;;8.00;;
16354;SDS011;8287;51.644;8.494;2023-06-22T02:40:18;9.77;;;8.38;;
16354;SDS011;8287;51.644;8.494;2023-06-22T02:42:45;13.13;;;8.18;;
16354;SDS011;8287;51.644;8.494;2023-06-22T02:45:11;9.15;;;8.23;;
16354;SDS011;8287;51.644;8.494;2023-06-22T02:47:38;13.40;;;8.05;;
16354;SDS011;8287;51.644;8.494;2023-06-22T02:50:05;10.40;;;7.43;;
16354;SDS011;8287;51.644;8.494;2023-06-22T02:52:33;13.70;;;7.30;;
16354;SDS011;8287;51.644;8.494;2023-06-22T02:55:00;9.00;;;7.82;;
16354;SDS011;8287;51.644;8.494;2023-06-22T02:57:27;9.50;;;7.43;;
16354;SDS011;8287;51.644;8.494;2023-06-22T02:59:53;11.18;;;7.72;;
16354;SDS011;8287;51.644;8.494;2023-06-22T03:02:20;11.43;;;8.43;;
16354;SDS011;8287;51.644;8.494;2023-06-22T03:04:46;8.05;;;7.25;;
16354;SDS011;8287;51.644;8.494;2023-06-22T03:07:14;10.82;;;8.43;;
16354;SDS011;8287;51.644;8.494;2023-06-22T03:09:43;9.73;;;8.13;;
16354;SDS011;8287;51.644;8.494;2023-06-22T03:12:10;10.20;;;7.78;;
16354;SDS011;8287;51.644;8.494;2023-06-22T03:14:37;9.23;;;8.32;;
16354;SDS011;8287;51.644;8.494;2023-06-22T03:17:04;10.43;;;8.00;;
16354;SDS011;8287;51.644;8.494;2023-06-22T03:19:31;10.40;;;8.82;;
16354;SDS011;8287;51.644;8.494;2023-06-22T03:21:58;12.65;;;9.88;;
16354;SDS011;8287;51.644;8.494;2023-06-22T03:24:25;10.88;;;8.38;;
16354;SDS011;8287;51.644;8.494;2023-06-22T03:26:55;21.45;;;10.50;;
16354;SDS011;8287;51.644;8.494;2023-06-22T03:29:22;10.68;;;8.82;;
16354;SDS011;8287;51.644;8.494;2023-06-22T03:31:50;10.10;;;8.00;;
16354;SDS011;8287;51.644;8.494;2023-06-22T03:34:16;9.82;;;8.73;;
16354;SDS011;8287;51.644;8.494;2023-06-22T03:36:43;11.93;;;8.55;;
16354;SDS011;8287;51.644;8.494;2023-06-22T03:39:11;12.25;;;9.02;;
16354;SDS011;8287;51.644;8.494;2023-06-22T03:41:38;18.38;;;9.95;;
16354;SDS011;8287;51.644;8.494;2023-06-22T03:44:06;11.73;;;9.30;;
16354;SDS011;8287;51.644;8.494;2023-06-22T03:46:35;22.58;;;10.55;;
16354;SDS011;8287;51.644;8.494;2023-06-22T03:49:02;12.13;;;9.20;;
16354;SDS011;8287;51.644;8.494;2023-06-22T03:51:28;17.38;;;10.65;;
16354;SDS011;8287;51.644;8.494;2023-06-22T03:53:55;15.45;;;9.50;;
16354;SDS011;8287;51.644;8.494;2023-06-22T03:56:22;18.45;;;9.50;;
16354;SDS011;8287;51.644;8.494;2023-06-22T03:58:48;16.95;;;10.25;;
16354;SDS011;8287;51.644;8.494;2023-06-22T04:01:17;16.83;;;10.10;;
16354;SDS011;8287;51.644;8.494;2023-06-22T04:03:44;18.67;;;12.07;;
16354;SDS011;8287;51.644;8.494;2023-06-22T04:06:13;11.52;;;9.77;;
16354;SDS011;8287;51.644;8.494;2023-06-22T04:08:39;18.70;;;9.57;;
16354;SDS011;8287;51.644;8.494;2023-06-22T04:11:07;16.63;;;10.60;;
16354;SDS011;8287;51.644;8.494;2023-06-22T04:13:33;14.60;;;10.13;;
16354;SDS011;8287;51.644;8.494;2023-06-22T04:16:00;17.55;;;10.77;;
16354;SDS011;8287;51.644;8.494;2023-06-22T04:18:28;12.63;;;10.63;;
16354;SDS011;8287;51.644;8.494;2023-06-22T04:20:55;18.42;;;11.23;;
16354;SDS011;8287;51.644;8.494;2023-06-22T04:23:21;13.35;;;11.25;;
16354;SDS011;8287;51.644;8.494;2023-06-22T04:25:48;12.00;;;10.70;;
16354;SDS011;8287;51.644;8.494;2023-06-22T04:28:16;16.88;;;12.65;;
16354;SDS011;8287;51.644;8.494;2023-06-22T04:30:42;13.98;;;11.88;;
16354;SDS011;8287;51.644;8.494;2023-06-22T04:33:12;20.13;;;11.40;;
16354;SDS011;8287;51.644;8.494;2023-06-22T04:35:41;13.70;;;12.27;;
16354;SDS011;8287;51.644;8.494;2023-06-22T04:38:07;18.10;;;10.82;;
16354;SDS011;8287;51.644;8.494;2023-06-22T04:40:34;14.45;;;11.02;;
16354;SDS011;8287;51.644;8.494;2023-06-22T04:43:01;12.18;;;10.40;;
16354;SDS011;8287;51.644;8.494;2023-06-22T04:45:28;13.90;;;10.45;;
16354;SDS011;8287;51.644;8.494;2023-06-22T04:47:55;16.73;;;12.20;;
16354;SDS011;8287;51.644;8.494;2023-06-22T04:50:22;15.38;;;12.77;;
16354;SDS011;8287;51.644;8.494;2023-06-22T04:52:50;36.38;;;16.52;;
16354;SDS011;8287;51.644;8.494;2023-06-22T04:55:17;16.05;;;13.82;;
16354;SDS011;8287;51.644;8.494;2023-06-22T04:57:45;15.77;;;13.35;;
16354;SDS011;8287;51.644;8.494;2023-06-22T05:00:14;24.20;;;14.20;;
16354;SDS011;8287;51.644;8.494;2023-06-22T05:02:42;23.73;;;15.65;;
16354;SDS011;8287;51.644;8.494;2023-06-22T05:05:10;20.17;;;15.23;;
16354;SDS011;8287;51.644;8.494;2023-06-22T05:07:39;21.05;;;15.13;;
16354;SDS011;8287;51.644;8.494;2023-06-22T05:10:09;15.07;;;12.57;;
16354;SDS011;8287;51.644;8.494;2023-06-22T05:12:37;14.07;;;12.45;;
16354;SDS011;8287;51.644;8.494;2023-06-22T05:15:04;15.75;;;12.32;;
16354;SDS011;8287;51.644;8.494;2023-06-22T05:17:32;12.65;;;11.38;;
16354;SDS011;8287;51.644;8.494;2023-06-22T05:19:59;12.93;;;11.68;;
16354;SDS011;8287;51.644;8.494;2023-06-22T05:22:26;14.35;;;11.15;;
16354;SDS011;8287;51.644;8.494;2023-06-22T05:24:52;13.07;;;11.80;;
16354;SDS011;8287;51.644;8.494;2023-06-22T05:27:20;13.90;;;12.27;;
16354;SDS011;8287;51.644;8.494;2023-06-22T05:29:47;17.30;;;13.32;;
16354;SDS011;8287;51.644;8.494;2023-06-22T05:32:14;17.33;;;13.77;;
16354;SDS011;8287;51.644;8.494;2023-06-22T05:34:40;14.77;;;12.90;;
16354;SDS011;8287;51.644;8.494;2023-06-22T05:37:07;13.32;;;11.82;;
16354;SDS011;8287;51.644;8.494;2023-06-22T05:39:34;17.15;;;12.52;;
16354;SDS011;8287;51.644;8.494;2023-06-22T05:42:03;14.98;;;12.50;;
16354;SDS011;8287;51.644;8.494;2023-06-22T05:44:32;13.80;;;11.35;;
16354;SDS011;8287;51.644;8.494;2023-06-22T05:46:59;17.23;;;14.20;;
16354;SDS011;8287;51.644;8.494;2023-06-22T05:49:26;16.10;;;12.68;;
16354;SDS011;8287;51.644;8.494;2023-06-22T05:51:54;13.93;;;11.07;;
16354;SDS011;8287;51.644;8.494;2023-06-22T05:54:21;12.32;;;11.05;;
16354;SDS011;8287;51.644;8.494;2023-06-22T05:56:48;17.67;;;10.95;;
16354;SDS011;8287;51.644;8.494;2023-06-22T05:59:14;12.65;;;11.43;;
16354;SDS011;8287;51.644;8.494;2023-06-22T06:01:42;17.92;;;11.80;;
16354;SDS011;8287;51.644;8.494;2023-06-22T06:04:09;13.48;;;10.98;;
16354;SDS011;8287;51.644;8.494;2023-06-22T06:06:35;15.15;;;10.95;;
16354;SDS011;8287;51.644;8.494;2023-06-22T06:09:02;15.93;;;12.38;;
16354;SDS011;8287;51.644;8.494;2023-06-22T06:11:29;15.75;;;13.43;;
16354;SDS011;8287;51.644;8.494;2023-06-22T06:13:56;13.60;;;11.75;;
16354;SDS011;8287;51.644;8.494;2023-06-22T06:16:22;13.85;;;12.35;;
16354;SDS011;8287;51.644;8.494;2023-06-22T06:18:50;14.38;;;12.88;;
16354;SDS011;8287;51.644;8.494;2023-06-22T06:21:18;14.05;;;12.75;;
16354;SDS011;8287;51.644;8.494;2023-06-22T06:23:45;15.48;;;13.30;;
16354;SDS011;8287;51.644;8.494;2023-06-22T06:26:12;17.02;;;12.93;;
16354;SDS011;8287;51.644;8.494;2023-06-22T06:28:41;17.55;;;13.98;;
16354;SDS011;8287;51.644;8.494;2023-06-22T06:31:08;24.67;;;13.77;;
16354;SDS011;8287;51.644;8.494;2023-06-22T06:33:34;16.10;;;11.63;;
16354;SDS011;8287;51.644;8.494;2023-06-22T06:36:02;17.17;;;12.27;;
16354;SDS011;8287;51.644;8.494;2023-06-22T06:38:29;16.80;;;12.07;;
16354;SDS011;8287;51.644;8.494;2023-06-22T06:40:56;13.48;;;11.68;;
16354;SDS011;8287;51.644;8.494;2023-06-22T06:43:22;15.13;;;11.98;;
16354;SDS011;8287;51.644;8.494;2023-06-22T06:45:49;22.80;;;13.20;;
16354;SDS011;8287;51.644;8.494;2023-06-22T06:48:16;16.23;;;14.52;;
16354;SDS011;8287;51.644;8.494;2023-06-22T06:50:43;17.30;;;12.68;;
16354;SDS011;8287;51.644;8.494;2023-06-22T06:53:11;11.93;;;10.73;;
16354;SDS011;8287;51.644;8.494;2023-06-22T06:55:38;18.42;;;11.13;;
16354;SDS011;8287;51.644;8.494;2023-06-22T06:58:04;12.55;;;11.30;;
16354;SDS011;8287;51.644;8.494;2023-06-22T07:00:32;18.05;;;12.02;;
16354;SDS011;8287;51.644;8.494;2023-06-22T07:03:00;15.52;;;13.95;;
16354;SDS011;8287;51.644;8.494;2023-06-22T07:05:27;15.82;;;12.73;;
16354;SDS011;8287;51.644;8.494;2023-06-22T07:07:54;18.38;;;13.38;;
16354;SDS011;8287;51.644;8.494;2023-06-22T07:10:22;16.70;;;12.65;;
16354;SDS011;8287;51.644;8.494;2023-06-22T07:12:48;15.60;;;14.07;;
16354;SDS011;8287;51.644;8.494;2023-06-22T07:15:15;15.13;;;12.68;;
16354;SDS011;8287;51.644;8.494;2023-06-22T07:17:41;13.98;;;12.48;;
16354;SDS011;8287;51.644;8.494;2023-06-22T07:20:08;20.15;;;14.15;;
16354;SDS011;8287;51.644;8.494;2023-06-22T07:22:37;16.23;;;14.50;;
16354;SDS011;8287;51.644;8.494;2023-06-22T07:25:04;17.83;;;15.90;;
16354;SDS011;8287;51.644;8.494;2023-06-22T07:27:36;19.38;;;14.95;;
16354;SDS011;8287;51.644;8.494;2023-06-22T07:30:04;16.73;;;15.13;;
16354;SDS011;8287;51.644;8.494;2023-06-22T07:32:32;20.35;;;17.70;;
16354;SDS011;8287;51.644;8.494;2023-06-22T07:34:58;17.70;;;14.60;;
16354;SDS011;8287;51.644;8.494;2023-06-22T07:37:25;16.48;;;14.65;;
16354;SDS011;8287;51.644;8.494;2023-06-22T07:39:54;18.10;;;14.00;;
16354;SDS011;8287;51.644;8.494;2023-06-22T07:42:23;16.45;;;14.75;;
16354;SDS011;8287;51.644;8.494;2023-06-22T07:44:51;18.73;;;15.43;;
16354;SDS011;8287;51.644;8.494;2023-06-22T07:47:18;15.75;;;13.10;;
16354;SDS011;8287;51.644;8.494;2023-06-22T07:49:45;14.38;;;13.00;;
16354;SDS011;8287;51.644;8.494;2023-06-22T07:52:11;15.27;;;13.63;;
16354;SDS011;8287;51.644;8.494;2023-06-22T07:54:38;18.10;;;15.82;;
16354;SDS011;8287;51.644;8.494;2023-06-22T07:57:05;16.65;;;14.85;;
16354;SDS011;8287;51.644;8.494;2023-06-22T07:59:32;15.90;;;14.18;;
16354;SDS011;8287;51.644;8.494;2023-06-22T08:02:00;15.10;;;13.43;;
16354;SDS011;8287;51.644;8.494;2023-06-22T08:04:28;14.65;;;12.77;;
16354;SDS011;8287;51.644;8.494;2023-06-22T08:06:56;14.65;;;13.15;;
16354;SDS011;8287;51.644;8.494;2023-06-22T08:09:22;15.07;;;13.55;;
16354;SDS011;8287;51.644;8.494;2023-06-22T08:11:49;17.65;;;15.80;;
16354;SDS011;8287;51.644;8.494;2023-06-22T08:14:15;20.20;;;18.20;;
16354;SDS011;8287;51.644;8.494;2023-06-22T08:16:42;16.20;;;14.60;;
16354;SDS011;8287;51.644;8.494;2023-06-22T08:19:10;18.40;;;16.52;;
16354;SDS011;8287;51.644;8.494;2023-06-22T08:21:36;19.92;;;17.45;;
16354;SDS011;8287;51.644;8.494;2023-06-22T08:24:04;15.07;;;13.48;;
16354;SDS011;8287;51.644;8.494;2023-06-22T08:26:32;16.17;;;14.52;;
16354;SDS011;8287;51.644;8.494;2023-06-22T08:29:01;14.75;;;13.25;;
16354;SDS011;8287;51.644;8.494;2023-06-22T08:31:28;21.45;;;16.88;;
16354;SDS011;8287;51.644;8.494;2023-06-22T08:33:54;19.38;;;17.30;;
16354;SDS011;8287;51.644;8.494;2023-06-22T08:36:22;13.25;;;11.95;;
16354;SDS011;8287;51.644;8.494;2023-06-22T08:38:49;14.20;;;12.25;;
16354;SDS011;8287;51.644;8.494;2023-06-22T08:41:16;12.65;;;11.45;;
16354;SDS011;8287;51.644;8.494;2023-06-22T08:43:43;15.80;;;12.55;;
16354;SDS011;8287;51.644;8.494;2023-06-22T08:46:10;13.48;;;10.82;;
16354;SDS011;8287;51.644;8.494;2023-06-22T08:48:37;11.88;;;10.77;;
16354;SDS011;8287;51.644;8.494;2023-06-22T08:51:04;10.85;;;9.82;;
16354;SDS011;8287;51.644;8.494;2023-06-22T08:53:32;11.30;;;10.10;;
16354;SDS011;8287;51.644;8.494;2023-06-22T08:56:00;11.45;;;10.27;;
16354;SDS011;8287;51.644;8.494;2023-06-22T08:58:26;10.05;;;9.02;;
16354;SDS011;8287;51.644;8.494;2023-06-22T09:00:53;9.23;;;8.32;;
16354;SDS011;8287;51.644;8.494;2023-06-22T09:03:19;7.85;;;6.82;;
16354;SDS011;8287;51.644;8.494;2023-06-22T09:05:46;7.68;;;6.88;;
16354;SDS011;8287;51.644;8.494;2023-06-22T09:08:13;6.95;;;6.22;;
16354;SDS011;8287;51.644;8.494;2023-06-22T09:10:41;10.18;;;7.25;;
16354;SDS011;8287;51.644;8.494;2023-06-22T09:13:07;6.57;;;5.82;;
16354;SDS011;8287;51.644;8.494;2023-06-22T09:15:34;7.63;;;6.85;;
16354;SDS011;8287;51.644;8.494;2023-06-22T09:18:01;6.55;;;5.95;;
16354;SDS011;8287;51.644;8.494;2023-06-22T09:20:28;8.77;;;6.20;;
16354;SDS011;8287;51.644;8.494;2023-06-22T09:22:54;7.60;;;6.82;;
16354;SDS011;8287;51.644;8.494;2023-06-22T09:25:21;7.55;;;6.75;;
16354;SDS011;8287;51.644;8.494;2023-06-22T09:27:49;9.00;;;7.55;;
16354;SDS011;8287;51.644;8.494;2023-06-22T09:30:16;7.05;;;6.30;;
16354;SDS011;8287;51.644;8.494;2023-06-22T09:32:42;7.88;;;7.07;;
16354;SDS011;8287;51.644;8.494;2023-06-22T09:35:09;9.32;;;5.88;;
16354;SDS011;8287;51.644;8.494;2023-06-22T09:37:38;9.70;;;7.22;;
16354;SDS011;8287;51.644;8.494;2023-06-22T09:40:05;6.80;;;6.13;;
16354;SDS011;8287;51.644;8.494;2023-06-22T09:42:35;7.82;;;7.05;;
16354;SDS011;8287;51.644;8.494;2023-06-22T09:45:04;7.72;;;7.03;;
16354;SDS011;8287;51.644;8.494;2023-06-22T09:47:31;7.20;;;6.32;;
16354;SDS011;8287;51.644;8.494;2023-06-22T09:49:57;7.55;;;6.82;;
16354;SDS011;8287;51.644;8.494;2023-06-22T09:52:25;7.03;;;6.43;;
16354;SDS011;8287;51.644;8.494;2023-06-22T09:54:51;7.95;;;6.88;;
16354;SDS011;8287;51.644;8.494;2023-06-22T09:57:18;8.20;;;7.00;;
16354;SDS011;8287;51.644;8.494;2023-06-22T09:59:45;6.82;;;6.13;;
16354;SDS011;8287;51.644;8.494;2023-06-22T10:02:13;7.85;;;7.15;;
16354;SDS011;8287;51.644;8.494;2023-06-22T10:04:39;7.22;;;6.53;;
16354;SDS011;8287;51.644;8.494;2023-06-22T10:07:06;8.18;;;7.38;;
16354;SDS011;8287;51.644;8.494;2023-06-22T10:09:33;8.75;;;6.90;;
16354;SDS011;8287;51.644;8.494;2023-06-22T10:11:59;6.85;;;6.25;;
16354;SDS011;8287;51.644;8.494;2023-06-22T10:14:26;6.82;;;6.20;;
16354;SDS011;8287;51.644;8.494;2023-06-22T10:16:54;7.22;;;6.53;;
16354;SDS011;8287;51.644;8.494;2023-06-22T10:19:22;8.00;;;7.22;;
16354;SDS011;8287;51.644;8.494;2023-06-22T10:21:49;9.15;;;7.72;;
16354;SDS011;8287;51.644;8.494;2023-06-22T10:24:15;6.45;;;5.88;;
16354;SDS011;8287;51.644;8.494;2023-06-22T10:26:42;6.97;;;6.07;;
16354;SDS011;8287;51.644;8.494;2023-06-22T10:29:09;6.47;;;5.88;;
16354;SDS011;8287;51.644;8.494;2023-06-22T10:31:35;6.15;;;5.55;;
16354;SDS011;8287;51.644;8.494;2023-06-22T10:34:02;8.32;;;6.18;;
16354;SDS011;8287;51.644;8.494;2023-06-22T10:36:30;7.10;;;6.38;;
16354;SDS011;8287;51.644;8.494;2023-06-22T10:38:57;6.43;;;5.85;;
16354;SDS011;8287;51.644;8.494;2023-06-22T10:41:26;7.45;;;6.20;;
16354;SDS011;8287;51.644;8.494;2023-06-22T10:43:55;7.38;;;6.35;;
16354;SDS011;8287;51.644;8.494;2023-06-22T10:46:21;5.82;;;5.28;;
16354;SDS011;8287;51.644;8.494;2023-06-22T10:48:50;6.20;;;5.60;;
16354;SDS011;8287;51.644;8.494;2023-06-22T10:51:19;7.47;;;6.65;;
16354;SDS011;8287;51.644;8.494;2023-06-22T10:53:47;6.45;;;5.85;;
16354;SDS011;8287;51.644;8.494;2023-06-22T10:56:14;8.45;;;6.68;;
16354;SDS011;8287;51.644;8.494;2023-06-22T10:58:40;5.80;;;5.28;;
16354;SDS011;8287;51.644;8.494;2023-06-22T11:01:07;6.72;;;6.13;;
16354;SDS011;8287;51.644;8.494;2023-06-22T11:03:33;6.75;;;6.10;;
16354;SDS011;8287;51.644;8.494;2023-06-22T11:06:00;6.85;;;6.20;;
16354;SDS011;8287;51.644;8.494;2023-06-22T11:08:26;8.02;;;6.68;;
16354;SDS011;8287;51.644;8.494;2023-06-22T11:10:54;8.07;;;6.07;;
16354;SDS011;8287;51.644;8.494;2023-06-22T11:13:21;15.13;;;12.85;;
16354;SDS011;8287;51.644;8.494;2023-06-22T11:15:48;7.75;;;7.05;;
16354;SDS011;8287;51.644;8.494;2023-06-22T11:18:14;6.63;;;6.03;;
16354;SDS011;8287;51.644;8.494;2023-06-22T11:20:41;9.57;;;7.32;;
16354;SDS011;8287;51.644;8.494;2023-06-22T11:23:08;7.70;;;7.00;;
16354;SDS011;8287;51.644;8.494;2023-06-22T11:25:34;7.63;;;6.82;;
16354;SDS011;8287;51.644;8.494;2023-06-22T11:28:04;6.28;;;5.72;;
16354;SDS011;8287;51.644;8.494;2023-06-22T11:30:31;7.25;;;6.55;;
16354;SDS011;8287;51.644;8.494;2023-06-22T11:32:58;7.70;;;6.68;;
16354;SDS011;8287;51.644;8.494;2023-06-22T11:35:25;6.78;;;6.07;;
16354;SDS011;8287;51.644;8.494;2023-06-22T11:37:52;7.13;;;5.90;;
16354;SDS011;8287;51.644;8.494;2023-06-22T11:40:19;6.30;;;5.70;;
16354;SDS011;8287;51.644;8.494;2023-06-22T11:42:45;6.57;;;5.93;;
16354;SDS011;8287;51.644;8.494;2023-06-22T11:45:13;7.20;;;5.50;;
16354;SDS011;8287;51.644;8.494;2023-06-22T11:47:41;7.35;;;6.20;;
16354;SDS011;8287;51.644;8.494;2023-06-22T11:50:08;7.00;;;5.65;;
16354;SDS011;8287;51.644;8.494;2023-06-22T11:52:35;7.30;;;5.88;;
16354;SDS011;8287;51.644;8.494;2023-06-22T11:55:02;5.97;;;5.38;;
16354;SDS011;8287;51.644;8.494;2023-06-22T11:57:30;8.13;;;6.45;;
16354;SDS011;8287;51.644;8.494;2023-06-22T11:59:58;5.40;;;4.90;;
16354;SDS011;8287;51.644;8.494;2023-06-22T12:02:26;6.55;;;5.82;;
16354;SDS011;8287;51.644;8.494;2023-06-22T12:04:53;7.07;;;6.20;;
16354;SDS011;8287;51.644;8.494;2023-06-22T12:07:21;6.30;;;5.15;;
16354;SDS011;8287;51.644;8.494;2023-06-22T12:09:47;6.47;;;5.88;;
16354;SDS011;8287;51.644;8.494;2023-06-22T12:12:14;7.03;;;5.15;;
16354;SDS011;8287;51.644;8.494;2023-06-22T12:14:41;8.23;;;5.65;;
16354;SDS011;8287;51.644;8.494;2023-06-22T12:17:07;6.10;;;5.50;;
16354;SDS011;8287;51.644;8.494;2023-06-22T12:19:35;6.28;;;5.70;;
16354;SDS011;8287;51.644;8.494;2023-06-22T12:22:02;5.00;;;4.60;;
16354;SDS011;8287;51.644;8.494;2023-06-22T12:24:29;5.47;;;4.43;;
16354;SDS011;8287;51.644;8.494;2023-06-22T12:26:55;6.60;;;6.00;;
16354;SDS011;8287;51.644;8.494;2023-06-22T12:29:22;7.18;;;5.85;;
16354;SDS011;8287;51.644;8.494;2023-06-22T12:31:48;11.20;;;6.28;;
16354;SDS011;8287;51.644;8.494;2023-06-22T12:34:15;6.75;;;5.85;;
16354;SDS011;8287;51.644;8.494;2023-06-22T12:36:43;8.02;;;7.22;;
16354;SDS011;8287;51.644;8.494;2023-06-22T12:39:09;8.65;;;7.78;;
16354;SDS011;8287;51.644;8.494;2023-06-22T12:41:36;10.38;;;9.27;;
16354;SDS011;8287;51.644;8.494;2023-06-22T12:44:03;7.03;;;6.32;;
16354;SDS011;8287;51.644;8.494;2023-06-22T12:46:30;6.53;;;5.93;;
16354;SDS011;8287;51.644;8.494;2023-06-22T12:49:02;9.68;;;7.38;;
16354;SDS011;8287;51.644;8.494;2023-06-22T12:51:29;7.75;;;6.97;;
16354;SDS011;8287;51.644;8.494;2023-06-22T12:53:57;7.68;;;6.97;;
16354;SDS011;8287;51.644;8.494;2023-06-22T12:56:23;7.53;;;6.85;;
16354;SDS011;8287;51.644;8.494;2023-06-22T12:58:50;7.72;;;7.00;;
16354;SDS011;8287;51.644;8.494;2023-06-22T13:01:17;7.47;;;6.78;;
16354;SDS011;8287;51.644;8.494;2023-06-22T13:03:44;8.40;;;7.55;;
16354;SDS011;8287;51.644;8.494;2023-06-22T13:06:10;12.55;;;11.32;;
16354;SDS011;8287;51.644;8.494;2023-06-22T13:08:37;7.40;;;6.70;;
16354;SDS011;8287;51.644;8.494;2023-06-22T13:11:05;9.82;;;8.68;;
16354;SDS011;8287;51.644;8.494;2023-06-22T13:13:31;9.20;;;8.30;;
16354;SDS011;8287;51.644;8.494;2023-06-22T13:15:59;10.98;;;9.88;;
16354;SDS011;8287;51.644;8.494;2023-06-22T13:18:25;9.70;;;8.70;;
16354;SDS011;8287;51.644;8.494;2023-06-22T13:20:52;9.60;;;7.93;;
16354;SDS011;8287;51.644;8.494;2023-06-22T13:23:19;12.57;;;10.20;;
16354;SDS011;8287;51.644;8.494;2023-06-22T13:25:46;9.80;;;8.75;;
16354;SDS011;8287;51.644;8.494;2023-06-22T13:28:14;11.80;;;8.73;;
16354;SDS011;8287;51.644;8.494;2023-06-22T13:30:41;10.57;;;9.52;;
16354;SDS011;8287;51.644;8.494;2023-06-22T13:33:11;11.77;;;9.23;;
16354;SDS011;8287;51.644;8.494;2023-06-22T13:35:37;10.48;;;8.82;;
16354;SDS011;8287;51.644;8.494;2023-06-22T13:38:04;10.68;;;8.90;;
16354;SDS011;8287;51.644;8.494;2023-06-22T13:40:31;10.25;;;9.25;;
16354;SDS011;8287;51.644;8.494;2023-06-22T13:42:57;10.35;;;9.27;;
16354;SDS011;8287;51.644;8.494;2023-06-22T13:45:26;11.20;;;10.02;;
16354;SDS011;8287;51.644;8.494;2023-06-22T13:47:53;12.73;;;11.48;;
16354;SDS011;8287;51.644;8.494;2023-06-22T13:50:19;13.30;;;12.02;;
16354;SDS011;8287;51.644;8.494;2023-06-22T13:52:46;10.05;;;9.05;;
16354;SDS011;8287;51.644;8.494;2023-06-22T13:55:12;13.32;;;11.98;;
16354;SDS011;8287;51.644;8.494;2023-06-22T13:57:39;12.35;;;11.13;;
16354;SDS011;8287;51.644;8.494;2023-06-22T14:00:07;15.40;;;12.18;;
16354;SDS011;8287;51.644;8.494;2023-06-22T14:02:35;12.02;;;10.63;;
16354;SDS011;8287;51.644;8.494;2023-06-22T14:05:02;15.68;;;14.07;;
16354;SDS011;8287;51.644;8.494;2023-06-22T14:07:29;13.52;;;12.23;;
16354;SDS011;8287;51.644;8.494;2023-06-22T14:09:55;17.88;;;16.05;;
16354;SDS011;8287;51.644;8.494;2023-06-22T14:12:22;21.92;;;19.35;;
16354;SDS011;8287;51.644;8.494;2023-06-22T14:14:49;16.38;;;13.85;;
16354;SDS011;8287;51.644;8.494;2023-06-22T14:17:16;14.73;;;13.20;;
16354;SDS011;8287;51.644;8.494;2023-06-22T14:19:44;16.83;;;15.00;;
16354;SDS011;8287;51.644;8.494;2023-06-22T14:22:10;24.63;;;18.05;;
16354;SDS011;8287;51.644;8.494;2023-06-22T14:24:37;20.65;;;18.42;;
16354;SDS011;8287;51.644;8.494;2023-06-22T14:27:04;26.95;;;19.88;;
16354;SDS011;8287;51.644;8.494;2023-06-22T14:29:33;22.83;;;19.75;;
16354;SDS011;8287;51.644;8.494;2023-06-22T14:32:00;31.95;;;23.25;;
16354;SDS011;8287;51.644;8.494;2023-06-22T14:34:26;23.52;;;21.13;;
16354;SDS011;8287;51.644;8.494;2023-06-22T14:36:54;21.10;;;18.83;;
16354;SDS011;8287;51.644;8.494;2023-06-22T14:39:21;28.17;;;20.13;;
16354;SDS011;8287;51.644;8.494;2023-06-22T14:41:47;21.90;;;19.35;;
16354;SDS011;8287;51.644;8.494;2023-06-22T14:44:14;18.85;;;15.60;;
16354;SDS011;8287;51.644;8.494;2023-06-22T14:46:41;21.10;;;18.85;;
16354;SDS011;8287;51.644;8.494;2023-06-22T14:49:07;20.23;;;17.98;;